aviador You're here:

PPIZ Decoded Metar

POINT LAY in AK, USA
Report Time2018-07-23 10:56:00
UTC Time2018-07-23 11:41:01
Flight Rules mvfr MVFR
Wind190° at 04 kt
W.Decomp.*RWY 23: 2.3 kt HW 3.3 kt LCW
W.Rank190° ranks 16
Current wind is below 190° avg. (10.7)
Visibility9999 m
Phenomena:N/A
Clouds:Overcast 011 Hf
Expected CloudBase > 400 ft AGL from Temp-Dew spread
Ceiling1,100 ft
Temp10°C (ISA -5)
Dew Point09°C (94% RH)
AAT8.4°C
QNH1019 hPa
Density Alt-614 ft
Elevation26 ft
Report Wrong Elevation
Raw Report
PPIZ 231056Z AUTO 19004KT 10SM OVC011 10/09 A3008 RMK AO2 SLP192
T01000089 TSNO=

Extra information for PPIZ:More info

Metar Taf Metar & Taf Last 4 Metars F.Rules Stats Wind Profile Meteogram Temp Stats Airport Information Weather charts Add Link Nearby VenuesMetar ALERT Operation Metar Decoded Social comments

AIRNAV info for PPIZ